createdAt,value
2022-09-09T00:01:25.040Z,87.91
2022-09-09T00:04:01.847Z,88.30
2022-09-09T00:06:46.481Z,88.51
2022-09-09T00:09:21.472Z,88.62
2022-09-09T00:12:01.695Z,88.41
2022-09-09T00:14:40.544Z,87.77
2022-09-09T00:17:29.315Z,88.05
2022-09-09T00:20:11.727Z,88.29
2022-09-09T00:22:51.833Z,88.85
2022-09-09T00:25:33.596Z,89.25
2022-09-09T00:28:14.615Z,89.40
2022-09-09T00:30:48.488Z,89.17
2022-09-09T00:33:24.026Z,89.00
2022-09-09T00:35:59.116Z,89.46
2022-09-09T00:38:35.590Z,89.33
2022-09-09T00:41:15.338Z,89.11
2022-09-09T00:44:11.412Z,89.86
2022-09-09T00:46:57.541Z,90.71
2022-09-09T00:49:46.810Z,91.00
2022-09-09T00:52:30.878Z,90.90
2022-09-09T00:55:12.373Z,90.97
2022-09-09T00:57:46.542Z,91.13
2022-09-09T01:00:22.951Z,91.79
2022-09-09T01:03:11.323Z,92.49
2022-09-09T01:05:47.747Z,92.51
2022-09-09T01:08:42.667Z,92.03
2022-09-09T01:11:22.256Z,92.23
2022-09-09T01:13:59.610Z,92.28
2022-09-09T01:16:34.515Z,92.27
2022-09-09T01:19:11.147Z,92.47
2022-09-09T01:21:50.867Z,92.30
2022-09-09T01:24:32.856Z,92.45
2022-09-09T01:27:36.575Z,91.96
2022-09-09T01:30:12.094Z,92.11
2022-09-09T01:32:45.946Z,92.20
2022-09-09T01:35:33.477Z,91.73
2022-09-09T01:38:07.927Z,91.07
2022-09-09T01:40:40.605Z,90.65
2022-09-09T01:43:14.122Z,91.75
2022-09-09T01:45:50.130Z,91.79
2022-09-09T01:48:24.259Z,92.41
2022-09-09T01:51:08.959Z,92.96
2022-09-09T01:53:42.528Z,92.56
2022-09-09T01:56:32.447Z,92.87
2022-09-09T01:59:10.309Z,92.23
2022-09-09T02:01:59.742Z,92.45
2022-09-09T02:04:38.781Z,92.49
2022-09-09T02:07:32.848Z,93.01
2022-09-09T02:10:11.955Z,93.68
2022-09-09T02:12:51.725Z,93.68
2022-09-09T02:15:31.009Z,93.20
2022-09-09T02:18:09.254Z,93.61
2022-09-09T02:20:43.950Z,94.11
2022-09-09T02:23:17.525Z,93.26
2022-09-09T02:25:55.613Z,93.21
2022-09-09T02:28:32.459Z,93.33
2022-09-09T02:31:06.526Z,93.48
2022-09-09T02:33:48.242Z,93.20
2022-09-09T02:36:23.963Z,93.37
2022-09-09T02:38:57.323Z,93.50
2022-09-09T02:41:36.045Z,93.89
2022-09-09T02:44:11.701Z,93.51
2022-09-09T02:47:06.465Z,93.71
2022-09-09T02:49:50.197Z,93.49
2022-09-09T02:52:33.983Z,93.25
2022-09-09T02:55:14.654Z,93.50
2022-09-09T02:57:50.021Z,93.30
2022-09-09T03:00:25.568Z,93.62
2022-09-09T03:02:59.260Z,93.04
2022-09-09T03:05:32.454Z,92.94
2022-09-09T03:08:06.181Z,93.51
2022-09-09T03:10:38.706Z,93.58
2022-09-09T03:13:11.375Z,94.16
2022-09-09T03:15:45.718Z,93.98
2022-09-09T03:18:23.411Z,93.62
2022-09-09T03:20:59.763Z,93.74
2022-09-09T03:23:32.538Z,93.64
2022-09-09T03:26:08.808Z,93.91
2022-09-09T03:28:46.751Z,93.74
2022-09-09T03:31:23.043Z,94.10
2022-09-09T03:33:58.395Z,95.05
2022-09-09T03:36:33.123Z,95.35
2022-09-09T03:39:05.572Z,96.69
2022-09-09T03:41:38.515Z,98.04
2022-09-09T03:44:12.104Z,98.02
2022-09-09T03:46:47.152Z,97.77
2022-09-09T03:49:20.506Z,97.58
2022-09-09T03:51:53.581Z,97.65
2022-09-09T03:54:26.218Z,98.29
2022-09-09T03:56:58.661Z,98.35
2022-09-09T03:59:31.445Z,98.61
2022-09-09T04:02:04.378Z,98.73
2022-09-09T04:04:37.393Z,99.30
2022-09-09T04:07:10.274Z,98.98
2022-09-09T04:09:42.618Z,98.86
2022-09-09T04:12:15.007Z,98.68
2022-09-09T04:14:47.891Z,98.12
2022-09-09T04:17:20.283Z,97.79
2022-09-09T04:19:53.317Z,97.70
2022-09-09T04:22:25.679Z,97.94
2022-09-09T04:24:58.166Z,98.46
2022-09-09T04:27:31.010Z,98.06
2022-09-09T04:30:04.146Z,98.31
2022-09-09T04:32:38.275Z,98.08
2022-09-09T04:35:11.241Z,97.94
2022-09-09T04:37:44.539Z,98.46
2022-09-09T04:40:17.164Z,98.15
2022-09-09T04:42:49.986Z,97.90
2022-09-09T04:45:22.550Z,98.37
2022-09-09T04:47:55.301Z,98.35
2022-09-09T04:50:28.959Z,98.75
2022-09-09T04:53:05.581Z,98.86
2022-09-09T04:55:38.482Z,99.26
2022-09-09T04:58:11.507Z,98.06
2022-09-09T05:00:44.815Z,97.86
2022-09-09T05:03:17.148Z,98.16
2022-09-09T05:05:50.363Z,97.59
2022-09-09T05:08:23.173Z,97.58
2022-09-09T05:10:55.578Z,97.98
2022-09-09T05:13:28.175Z,98.11
2022-09-09T05:16:00.770Z,98.12
2022-09-09T05:18:33.239Z,97.48
2022-09-09T05:21:06.802Z,97.43
2022-09-09T05:23:39.478Z,97.55
2022-09-09T05:26:17.505Z,98.29
2022-09-09T05:28:51.838Z,98.58
2022-09-09T05:31:27.205Z,98.86
2022-09-09T05:33:59.791Z,98.58
2022-09-09T05:36:32.928Z,98.62
2022-09-09T05:39:05.356Z,99.12
2022-09-09T05:41:39.226Z,99.26
2022-09-09T05:44:11.902Z,98.39
2022-09-09T05:46:45.459Z,98.63
2022-09-09T05:49:18.965Z,96.51
2022-09-09T05:51:52.087Z,95.76
2022-09-09T05:54:25.955Z,95.39
2022-09-09T05:57:00.463Z,94.84
2022-09-09T05:59:32.897Z,93.53
2022-09-09T06:02:06.426Z,93.32
2022-09-09T06:04:42.107Z,92.50
2022-09-09T06:07:15.219Z,91.45
2022-09-09T06:09:47.695Z,91.36
2022-09-09T06:12:21.186Z,91.20
2022-09-09T06:14:53.550Z,90.47
2022-09-09T06:17:25.927Z,89.98
2022-09-09T06:19:58.591Z,89.08
2022-09-09T06:22:31.793Z,88.22
2022-09-09T06:25:04.839Z,87.95
2022-09-09T06:27:37.321Z,87.37
2022-09-09T06:30:11.554Z,87.38
2022-09-09T06:32:43.968Z,84.80
2022-09-09T06:35:16.430Z,84.56
2022-09-09T06:37:49.536Z,84.43
2022-09-09T06:40:23.561Z,82.10
2022-09-09T06:43:00.760Z,81.50
2022-09-09T06:45:45.333Z,80.92
2022-09-09T06:48:18.074Z,80.66
2022-09-09T06:50:50.462Z,80.21
2022-09-09T06:53:24.331Z,79.84
2022-09-09T06:55:56.623Z,79.74
2022-09-09T06:58:29.719Z,78.01
2022-09-09T07:01:05.164Z,77.11
2022-09-09T07:03:38.590Z,78.40
2022-09-09T07:06:17.235Z,77.77
2022-09-09T07:08:56.653Z,77.24
2022-09-09T07:11:34.439Z,73.34
2022-09-09T07:14:07.326Z,72.54
2022-09-09T07:16:40.605Z,72.50
2022-09-09T07:19:14.732Z,72.53
2022-09-09T07:21:48.043Z,71.62
2022-09-09T07:24:24.855Z,68.79
2022-09-09T07:26:57.881Z,66.27
2022-09-09T07:29:30.744Z,67.39
2022-09-09T07:32:04.583Z,63.28
2022-09-09T07:34:40.992Z,63.32
2022-09-09T07:37:13.732Z,61.55
2022-09-09T07:39:50.004Z,60.16
2022-09-09T07:42:23.740Z,58.95
2022-09-09T07:44:56.046Z,57.82
2022-09-09T07:47:28.559Z,58.02
2022-09-09T07:50:00.974Z,56.61
2022-09-09T07:52:37.093Z,55.62
2022-09-09T07:55:12.698Z,55.48
2022-09-09T07:57:45.282Z,55.34
2022-09-09T08:00:18.550Z,54.66
2022-09-09T08:02:56.338Z,53.53
2022-09-09T08:05:28.982Z,54.61
2022-09-09T08:08:03.467Z,53.40
2022-09-09T08:10:37.683Z,51.80
2022-09-09T08:13:17.867Z,51.58
2022-09-09T08:15:51.500Z,51.84
2022-09-09T08:18:24.673Z,53.35
2022-09-09T08:20:56.993Z,52.37
2022-09-09T08:23:30.244Z,51.22
2022-09-09T08:26:12.531Z,50.09
2022-09-09T08:28:44.882Z,50.40
2022-09-09T08:31:19.560Z,51.46
2022-09-09T08:33:53.397Z,50.90
2022-09-09T08:36:29.139Z,51.31
2022-09-09T08:39:01.758Z,50.37
2022-09-09T08:41:55.191Z,51.04
2022-09-09T08:44:38.402Z,51.29
2022-09-09T08:47:19.839Z,51.69
2022-09-09T08:50:08.775Z,52.40
2022-09-09T08:52:52.088Z,52.34
2022-09-09T08:55:37.887Z,52.41
2022-09-09T08:58:15.151Z,52.08
2022-09-09T09:01:29.920Z,52.20
2022-09-09T09:04:15.601Z,50.65
2022-09-09T09:06:58.975Z,51.62
2022-09-09T09:09:41.683Z,51.98
2022-09-09T09:12:18.951Z,50.01
2022-09-09T09:14:52.222Z,49.93
2022-09-09T09:17:29.943Z,50.96
2022-09-09T09:20:07.062Z,50.00
2022-09-09T09:22:47.914Z,49.99
2022-09-09T09:25:24.619Z,49.11
2022-09-09T09:28:00.962Z,48.34
2022-09-09T09:30:40.516Z,47.93
2022-09-09T09:33:21.592Z,48.38
2022-09-09T09:35:54.651Z,48.94
2022-09-09T09:41:33.387Z,49.47
2022-09-09T09:44:07.718Z,49.80
2022-09-09T09:46:41.974Z,49.23
2022-09-09T09:49:18.051Z,49.87
2022-09-09T09:51:52.557Z,49.00
2022-09-09T09:54:29.421Z,49.24
2022-09-09T09:57:10.789Z,48.68
2022-09-09T09:59:43.581Z,48.73
2022-09-09T10:02:26.924Z,47.97
2022-09-09T10:05:13.779Z,47.67
2022-09-09T10:08:01.599Z,47.70
2022-09-09T10:10:47.425Z,48.07
2022-09-09T10:13:27.926Z,48.89
2022-09-09T10:16:15.165Z,48.86
2022-09-09T10:18:59.640Z,48.73
2022-09-09T10:21:52.887Z,49.18
2022-09-09T10:24:45.071Z,50.18
2022-09-09T10:27:23.213Z,49.63
2022-09-09T10:30:09.063Z,50.19
2022-09-09T10:32:53.336Z,49.87
2022-09-09T10:35:30.515Z,50.70
2022-09-09T10:38:18.163Z,50.87
2022-09-09T10:41:11.958Z,52.18
2022-09-09T10:44:11.712Z,53.22
2022-09-09T10:47:01.856Z,53.58
2022-09-09T10:49:53.052Z,54.33
2022-09-09T10:52:33.606Z,54.68
2022-09-09T10:55:14.583Z,53.79
2022-09-09T10:57:49.102Z,55.11
2022-09-09T11:00:23.620Z,55.58
2022-09-09T11:02:57.786Z,56.43
2022-09-09T11:05:36.638Z,55.58
2022-09-09T11:08:15.860Z,56.16
2022-09-09T11:10:59.995Z,57.00
2022-09-09T11:13:36.710Z,58.21
2022-09-09T11:16:20.343Z,58.47
2022-09-09T11:18:58.390Z,58.45
2022-09-09T11:21:35.065Z,58.88
2022-09-09T11:24:14.699Z,59.21
2022-09-09T11:26:53.208Z,59.53
2022-09-09T11:30:27.208Z,58.41
2022-09-09T11:33:38.285Z,60.21
2022-09-09T11:36:32.209Z,61.06
2022-09-09T11:39:34.007Z,61.57
2022-09-09T11:42:08.207Z,61.29
2022-09-09T11:44:42.812Z,60.24
2022-09-09T11:47:26.884Z,59.64
2022-09-09T11:50:26.953Z,60.39
2022-09-09T11:53:23.184Z,60.49
2022-09-09T11:56:09.475Z,58.62
2022-09-09T11:58:45.475Z,59.38
2022-09-09T12:01:38.295Z,57.14
2022-09-09T12:04:33.860Z,57.02
2022-09-09T12:07:28.100Z,57.15
2022-09-09T12:10:05.556Z,58.32
2022-09-09T12:12:43.865Z,57.17
2022-09-09T12:15:28.411Z,57.96
2022-09-09T12:18:03.558Z,57.18
2022-09-09T12:20:37.830Z,57.84
2022-09-09T12:23:33.487Z,57.14
2022-09-09T12:26:28.000Z,56.97
2022-09-09T12:29:12.656Z,56.63
2022-09-09T12:31:52.000Z,55.72
2022-09-09T12:34:38.000Z,55.72
2022-09-09T12:37:18.535Z,57.01
2022-09-09T12:39:55.812Z,58.18
2022-09-09T12:42:28.668Z,59.59
2022-09-09T12:45:06.692Z,60.05
2022-09-09T12:47:44.166Z,60.90
2022-09-09T12:50:19.612Z,60.94
2022-09-09T12:52:54.362Z,63.92
2022-09-09T12:55:31.257Z,62.53
2022-09-09T12:58:06.287Z,62.89
2022-09-09T13:00:52.389Z,60.56
2022-09-09T13:03:25.542Z,60.85
2022-09-09T13:06:00.578Z,61.61
2022-09-09T13:08:33.021Z,61.68
2022-09-09T13:11:10.969Z,61.47
2022-09-09T13:13:44.016Z,62.76
2022-09-09T13:16:27.208Z,61.72
2022-09-09T13:19:01.113Z,61.53
2022-09-09T13:21:35.661Z,61.19
2022-09-09T13:24:27.682Z,60.87
2022-09-09T13:27:02.453Z,60.04
2022-09-09T13:29:35.077Z,60.38
2022-09-09T13:32:17.224Z,61.73
2022-09-09T13:34:53.226Z,61.95
2022-09-09T13:37:31.697Z,63.13
2022-09-09T13:40:06.119Z,63.24
2022-09-09T13:42:42.878Z,63.07
2022-09-09T13:45:20.726Z,62.70
2022-09-09T13:47:55.621Z,63.21
2022-09-09T13:50:29.501Z,62.25
2022-09-09T13:53:01.811Z,62.02
2022-09-09T13:55:34.227Z,62.12
2022-09-09T13:58:06.546Z,61.40
2022-09-09T14:00:40.023Z,59.74
2022-09-09T14:03:14.033Z,59.36
2022-09-09T14:05:46.744Z,59.27
2022-09-09T14:08:27.353Z,57.35
2022-09-09T14:10:59.811Z,57.64
2022-09-09T14:13:32.138Z,58.93
2022-09-09T14:16:04.953Z,58.67
2022-09-09T14:18:39.292Z,56.86
2022-09-09T14:21:11.923Z,56.87
2022-09-09T14:23:44.215Z,56.02
2022-09-09T14:26:16.551Z,56.31
2022-09-09T14:28:57.940Z,56.51
2022-09-09T14:31:30.610Z,55.78
2022-09-09T14:34:03.606Z,54.09
2022-09-09T14:36:35.947Z,54.88
2022-09-09T14:39:08.454Z,54.58
2022-09-09T14:41:40.802Z,52.94
2022-09-09T14:44:13.168Z,54.74
2022-09-09T14:46:45.503Z,53.21
2022-09-09T14:49:18.517Z,52.41
2022-09-09T14:51:50.857Z,53.63
2022-09-09T14:54:23.403Z,54.23
2022-09-09T14:56:57.430Z,54.88
2022-09-09T14:59:29.733Z,55.84
2022-09-09T15:02:04.393Z,55.90
2022-09-09T15:04:37.345Z,56.03
2022-09-09T15:07:11.119Z,56.73
2022-09-09T15:09:43.518Z,57.96
2022-09-09T15:12:16.219Z,57.29
2022-09-09T15:14:48.886Z,58.43
2022-09-09T15:17:21.454Z,57.72
2022-09-09T15:19:55.277Z,57.74
2022-09-09T15:22:27.707Z,57.38
2022-09-09T15:25:00.111Z,57.12
2022-09-09T15:27:32.456Z,57.35
2022-09-09T15:30:05.361Z,57.50
2022-09-09T15:32:38.846Z,57.49
2022-09-09T15:35:11.815Z,57.62
2022-09-09T15:37:44.093Z,57.59
2022-09-09T15:40:16.555Z,57.13
2022-09-09T15:42:49.394Z,58.26
2022-09-09T15:45:22.195Z,58.84
2022-09-09T15:47:54.944Z,58.68
2022-09-09T15:50:28.739Z,59.26
2022-09-09T15:53:01.499Z,58.66
2022-09-09T15:55:33.866Z,58.93
2022-09-09T15:58:06.157Z,58.99
2022-09-09T16:00:38.823Z,59.68
2022-09-09T16:03:12.554Z,58.84
2022-09-09T16:05:45.743Z,59.39
2022-09-09T16:08:18.513Z,59.32
2022-09-09T16:10:50.819Z,59.80
2022-09-09T16:13:23.083Z,60.32
2022-09-09T16:15:55.586Z,60.90
2022-09-09T16:18:34.214Z,62.34
2022-09-09T16:21:08.343Z,62.01
2022-09-09T16:23:40.659Z,61.93
2022-09-09T16:26:14.750Z,61.74
2022-09-09T16:28:48.002Z,62.16
2022-09-09T16:31:22.571Z,62.49
2022-09-09T16:33:55.204Z,62.21
2022-09-09T16:36:30.639Z,62.47
2022-09-09T16:39:05.632Z,62.73
2022-09-09T16:41:39.383Z,62.85
2022-09-09T16:44:12.990Z,63.49
2022-09-09T16:46:48.900Z,63.65
2022-09-09T16:49:21.443Z,64.11
2022-09-09T16:51:54.427Z,64.46
2022-09-09T16:54:27.548Z,64.92
2022-09-09T16:57:00.162Z,65.05
2022-09-09T16:59:32.425Z,64.44
2022-09-09T17:02:05.344Z,64.43
2022-09-09T17:04:37.635Z,65.00
2022-09-09T17:07:10.719Z,64.61
2022-09-09T17:09:43.089Z,64.25
2022-09-09T17:12:16.487Z,64.57
2022-09-09T17:14:48.758Z,66.18
2022-09-09T17:17:31.629Z,66.02
2022-09-09T17:20:07.382Z,65.96
2022-09-09T17:22:40.376Z,66.84
2022-09-09T17:25:12.663Z,66.47
2022-09-09T17:27:44.956Z,66.63
2022-09-09T17:30:17.470Z,67.23
2022-09-09T17:32:49.797Z,67.65
2022-09-09T17:35:22.175Z,68.19
2022-09-09T17:37:55.178Z,68.97
2022-09-09T17:40:28.611Z,68.23
2022-09-09T17:43:01.604Z,68.80
2022-09-09T17:45:33.918Z,68.95
2022-09-09T17:48:07.188Z,69.35
2022-09-09T17:50:39.581Z,69.31
2022-09-09T17:53:12.560Z,69.66
2022-09-09T17:55:44.882Z,70.18
2022-09-09T17:58:17.146Z,70.87
2022-09-09T18:00:50.048Z,70.76
2022-09-09T18:03:22.325Z,71.38
2022-09-09T18:06:00.510Z,71.69
2022-09-09T18:08:36.705Z,71.57
2022-09-09T18:11:09.871Z,72.17
2022-09-09T18:13:42.205Z,72.50
2022-09-09T18:16:14.490Z,73.03
2022-09-09T18:18:46.927Z,72.74
2022-09-09T18:21:19.911Z,72.56
2022-09-09T18:23:53.488Z,72.52
2022-09-09T18:26:26.879Z,73.21
2022-09-09T18:29:01.035Z,73.04
2022-09-09T18:31:34.627Z,73.51
2022-09-09T18:34:09.667Z,74.46
2022-09-09T18:36:44.512Z,74.15
2022-09-09T18:39:19.255Z,74.17
2022-09-09T18:41:53.427Z,74.56
2022-09-09T18:44:28.989Z,75.04
2022-09-09T18:47:02.603Z,75.62
2022-09-09T18:49:34.978Z,75.25
2022-09-09T18:52:10.983Z,75.26
2022-09-09T18:54:47.418Z,75.26
2022-09-09T18:57:19.894Z,75.82
2022-09-09T18:59:54.753Z,76.00
2022-09-09T19:02:27.126Z,75.22
2022-09-09T19:04:59.453Z,75.73
2022-09-09T19:07:31.803Z,75.87
2022-09-09T19:10:05.828Z,75.48
2022-09-09T19:12:39.257Z,75.70
2022-09-09T19:15:11.714Z,76.00
2022-09-09T19:17:44.027Z,76.04
2022-09-09T19:20:16.601Z,74.98
2022-09-09T19:22:49.083Z,74.66
2022-09-09T19:25:22.215Z,74.70
2022-09-09T19:27:54.535Z,74.05
2022-09-09T19:30:26.849Z,75.08
2022-09-09T19:32:59.229Z,75.25
2022-09-09T19:35:31.577Z,75.14
2022-09-09T19:38:03.940Z,75.91
2022-09-09T19:40:36.956Z,76.06
2022-09-09T19:43:09.254Z,76.24
2022-09-09T19:45:41.588Z,77.37
2022-09-09T19:48:14.629Z,76.70
2022-09-09T19:50:46.942Z,76.33
2022-09-09T19:53:19.474Z,76.74
2022-09-09T19:55:52.682Z,77.09
2022-09-09T19:58:25.043Z,76.70
2022-09-09T20:01:05.347Z,76.99
2022-09-09T20:03:39.290Z,77.24
2022-09-09T20:06:13.560Z,77.33
2022-09-09T20:08:48.111Z,77.45
2022-09-09T20:11:23.076Z,77.82
2022-09-09T20:14:02.891Z,79.12
2022-09-09T20:16:35.788Z,78.84
2022-09-09T20:19:11.122Z,78.56
2022-09-09T20:21:47.891Z,77.78
2022-09-09T20:24:22.748Z,78.05
2022-09-09T20:26:55.775Z,78.18
2022-09-09T20:29:28.095Z,77.85
2022-09-09T20:32:00.664Z,77.38
2022-09-09T20:34:33.041Z,76.59
2022-09-09T20:37:05.664Z,76.36
2022-09-09T20:39:38.040Z,76.67
2022-09-09T20:42:12.059Z,76.86
2022-09-09T20:44:44.363Z,76.78
2022-09-09T20:47:16.744Z,77.22
2022-09-09T20:49:49.162Z,77.00
2022-09-09T20:52:22.266Z,76.84
2022-09-09T20:54:55.343Z,77.41
2022-09-09T20:57:28.346Z,77.05
2022-09-09T21:00:00.718Z,77.03
2022-09-09T21:02:33.234Z,77.16
2022-09-09T21:05:06.754Z,77.62
2022-09-09T21:07:39.062Z,78.60
2022-09-09T21:10:11.524Z,78.85
2022-09-09T21:12:44.498Z,79.07
2022-09-09T21:15:17.108Z,78.83
2022-09-09T21:17:49.487Z,78.55
2022-09-09T21:20:22.004Z,79.19
2022-09-09T21:22:54.431Z,78.65
2022-09-09T21:25:26.793Z,78.86
2022-09-09T21:27:59.806Z,79.10
2022-09-09T21:30:39.302Z,78.97
2022-09-09T21:33:14.897Z,78.65
2022-09-09T21:35:47.286Z,78.89
2022-09-09T21:38:21.669Z,79.40
2022-09-09T21:40:54.026Z,79.05
2022-09-09T21:43:27.095Z,79.22
2022-09-09T21:46:03.261Z,79.62
2022-09-09T21:48:35.744Z,79.59
2022-09-09T21:51:11.212Z,79.74
2022-09-09T21:53:44.609Z,79.56
2022-09-09T21:56:18.682Z,79.92
2022-09-09T21:58:55.722Z,80.36
2022-09-09T22:01:28.018Z,80.20
2022-09-09T22:04:00.498Z,79.77
2022-09-09T22:06:33.128Z,80.46
2022-09-09T22:09:05.569Z,80.77
2022-09-09T22:11:37.893Z,80.83
2022-09-09T22:14:10.878Z,80.44
2022-09-09T22:16:43.222Z,80.77
2022-09-09T22:19:15.553Z,80.53
2022-09-09T22:21:47.893Z,80.32
2022-09-09T22:24:21.230Z,80.10
2022-09-09T22:26:54.864Z,79.86
2022-09-09T22:29:28.455Z,80.05
2022-09-09T22:32:00.938Z,80.69
2022-09-09T22:34:34.140Z,80.23
2022-09-09T22:37:06.899Z,80.79
2022-09-09T22:39:39.314Z,80.21
2022-09-09T22:42:11.731Z,80.51
2022-09-09T22:44:44.727Z,81.09
2022-09-09T22:47:17.083Z,81.55
2022-09-09T22:49:49.407Z,81.79
2022-09-09T22:52:21.727Z,81.36
2022-09-09T22:54:54.006Z,83.42
2022-09-09T22:57:26.803Z,83.57
2022-09-09T23:00:00.502Z,84.72
2022-09-09T23:02:34.050Z,84.69
2022-09-09T23:05:08.464Z,85.23
2022-09-09T23:07:42.363Z,85.37
2022-09-09T23:10:15.424Z,85.81
2022-09-09T23:12:48.375Z,86.02
2022-09-09T23:15:22.419Z,85.15
2022-09-09T23:17:55.091Z,86.28
2022-09-09T23:20:27.528Z,85.96
2022-09-09T23:23:00.239Z,86.20
2022-09-09T23:25:34.626Z,86.04
2022-09-09T23:28:06.963Z,85.64
2022-09-09T23:30:42.168Z,84.91
2022-09-09T23:33:14.794Z,84.42
2022-09-09T23:35:47.183Z,85.47
2022-09-09T23:38:19.502Z,85.98
2022-09-09T23:40:51.851Z,85.05
2022-09-09T23:43:25.959Z,85.23
2022-09-09T23:46:00.254Z,85.20
2022-09-09T23:48:33.064Z,85.38
2022-09-09T23:51:06.424Z,85.11
2022-09-09T23:53:40.248Z,84.94
2022-09-09T23:56:12.521Z,84.38
2022-09-09T23:58:44.847Z,83.38
